createdAt,value
2018-04-02T00:00:41.447Z,19.15
2018-04-02T00:03:09.578Z,20.52
2018-04-02T00:05:37.734Z,22.65
2018-04-02T00:08:06.638Z,23.12
2018-04-02T00:10:34.797Z,18.23
2018-04-02T00:13:03.699Z,19.83
2018-04-02T00:15:31.863Z,23.27
2018-04-02T00:18:00.771Z,22.80
2018-04-02T00:20:28.953Z,21.37
2018-04-02T00:22:57.108Z,18.87
2018-04-02T00:25:25.274Z,20.98
2018-04-02T00:27:53.441Z,18.40
2018-04-02T00:30:22.374Z,17.92
2018-04-02T00:32:50.501Z,17.37
2018-04-02T00:35:19.429Z,18.62
2018-04-02T00:37:47.569Z,17.70
2018-04-02T00:40:16.499Z,14.52
2018-04-02T00:42:44.641Z,18.62
2018-04-02T00:45:13.561Z,16.48
2018-04-02T00:47:41.701Z,16.90
2018-04-02T00:50:10.631Z,21.65
2018-04-02T00:52:38.772Z,16.25
2018-04-02T00:55:07.703Z,19.05
2018-04-02T00:57:35.842Z,19.23
2018-04-02T01:00:04.779Z,16.08
2018-04-02T01:02:32.925Z,15.45
2018-04-02T01:05:01.089Z,17.23
2018-04-02T01:07:29.229Z,17.90
2018-04-02T01:09:57.407Z,13.82
2018-04-02T01:12:25.546Z,14.02
2018-04-02T01:14:53.714Z,15.90
2018-04-02T01:17:21.844Z,11.38
2018-04-02T01:19:50.002Z,11.18
2018-04-02T01:22:18.133Z,13.93
2018-04-02T01:24:46.295Z,15.45
2018-04-02T01:27:14.435Z,11.68
2018-04-02T01:29:42.589Z,11.93
2018-04-02T01:32:10.713Z,10.43
2018-04-02T01:34:38.866Z,12.30
2018-04-02T01:37:07.004Z,11.52
2018-04-02T01:39:35.161Z,11.80
2018-04-02T01:42:03.303Z,12.88
2018-04-02T01:44:31.461Z,11.68
2018-04-02T01:46:59.598Z,11.98
2018-04-02T01:49:27.768Z,14.77
2018-04-02T01:51:55.910Z,14.38
2018-04-02T01:54:24.082Z,13.05
2018-04-02T01:56:52.220Z,15.52
2018-04-02T01:59:20.378Z,21.70
2018-04-02T02:01:49.284Z,13.40
2018-04-02T02:04:17.454Z,14.50
2018-04-02T02:06:46.349Z,13.82
2018-04-02T02:09:14.519Z,16.30
2018-04-02T02:11:43.450Z,16.80
2018-04-02T02:14:11.587Z,16.30
2018-04-02T02:16:40.513Z,21.95
2018-04-02T02:19:08.648Z,21.17
2018-04-02T02:21:37.574Z,23.80
2018-04-02T02:24:05.721Z,21.80
2018-04-02T02:26:33.888Z,24.98
2018-04-02T02:29:02.026Z,23.30
2018-04-02T02:31:30.196Z,28.08
2018-04-02T02:33:58.334Z,26.37
2018-04-02T02:36:26.498Z,28.73
2018-04-02T02:38:54.637Z,25.45
2018-04-02T02:41:22.805Z,30.35
2018-04-02T02:43:52.132Z,31.05
2018-04-02T02:46:21.059Z,31.70
2018-04-02T02:48:49.204Z,30.95
2018-04-02T02:51:17.379Z,31.98
2018-04-02T02:53:45.510Z,29.60
2018-04-02T02:56:13.674Z,26.30
2018-04-02T02:58:41.825Z,33.17
2018-04-02T03:01:09.998Z,31.10
2018-04-02T03:03:38.134Z,31.17
2018-04-02T03:06:06.302Z,27.65
2018-04-02T03:08:35.206Z,31.30
2018-04-02T03:11:03.361Z,31.62
2018-04-02T03:13:32.268Z,32.70
2018-04-02T03:16:00.430Z,33.10
2018-04-02T03:18:29.328Z,31.42
2018-04-02T03:20:57.492Z,35.17
2018-04-02T03:23:26.393Z,32.63
2018-04-02T03:25:54.553Z,36.53
2018-04-02T03:28:23.457Z,35.78
2018-04-02T03:30:51.615Z,31.92
2018-04-02T03:33:19.761Z,35.55
2018-04-02T03:35:47.920Z,35.60
2018-04-02T03:38:16.058Z,41.40
2018-04-02T03:40:44.224Z,32.90
2018-04-02T03:43:13.139Z,31.62
2018-04-02T03:45:41.306Z,34.20
2018-04-02T03:48:09.450Z,34.80
2018-04-02T03:50:37.612Z,38.10
2018-04-02T03:53:05.750Z,35.60
2018-04-02T03:55:33.916Z,29.90
2018-04-02T03:58:02.050Z,33.40
2018-04-02T04:00:31.604Z,34.00
2018-04-02T04:02:59.740Z,30.90
2018-04-02T04:05:27.910Z,33.63
2018-04-02T04:07:56.053Z,33.95
2018-04-02T04:10:24.217Z,33.50
2018-04-02T04:12:52.345Z,29.58
2018-04-02T04:15:20.510Z,35.75
2018-04-02T04:17:48.645Z,34.53
2018-04-02T04:20:16.804Z,33.92
2018-04-02T04:22:44.932Z,34.33
2018-04-02T04:25:13.096Z,39.97
2018-04-02T04:27:41.245Z,34.53
2018-04-02T04:30:09.413Z,28.38
2018-04-02T04:32:37.584Z,33.88
2018-04-02T04:35:05.740Z,26.40
2018-04-02T04:37:33.880Z,33.05
2018-04-02T04:40:02.047Z,35.80
2018-04-02T04:42:30.194Z,36.55
2018-04-02T04:44:58.334Z,36.78
2018-04-02T04:47:26.496Z,37.55
2018-04-02T04:49:54.638Z,36.53
2018-04-02T04:52:23.570Z,34.78
2018-04-02T04:54:51.711Z,26.25
2018-04-02T04:57:19.876Z,33.85
2018-04-02T04:59:48.021Z,35.05
2018-04-02T05:02:16.182Z,29.52
2018-04-02T05:04:44.318Z,31.20
2018-04-02T05:07:12.479Z,26.25
2018-04-02T05:09:40.617Z,31.12
2018-04-02T05:12:08.783Z,27.25
2018-04-02T05:14:36.913Z,35.70
2018-04-02T05:17:05.086Z,26.02
2018-04-02T05:19:33.213Z,36.33
2018-04-02T05:22:01.379Z,36.47
2018-04-02T05:24:29.520Z,25.40
2018-04-02T05:26:57.686Z,31.45
2018-04-02T05:29:25.850Z,25.90
2018-04-02T05:31:53.985Z,27.77
2018-04-02T05:34:22.146Z,27.02
2018-04-02T05:36:50.290Z,27.33
2018-04-02T05:39:18.446Z,27.42
2018-04-02T05:41:46.586Z,25.90
2018-04-02T05:44:15.508Z,22.65
2018-04-02T05:46:43.649Z,30.48
2018-04-02T05:49:11.813Z,22.73
2018-04-02T05:51:39.951Z,19.42
2018-04-02T05:54:08.108Z,18.33
2018-04-02T05:56:36.250Z,21.33
2018-04-02T05:59:04.405Z,21.77
2018-04-02T06:01:32.544Z,20.65
2018-04-02T06:04:00.701Z,18.05
2018-04-02T06:06:28.842Z,20.37
2018-04-02T06:08:57.004Z,19.35
2018-04-02T06:11:25.144Z,23.33
2018-04-02T06:13:53.330Z,22.25
2018-04-02T06:16:21.461Z,19.08
2018-04-02T06:18:49.899Z,21.50
2018-04-02T06:21:18.054Z,22.48
2018-04-02T06:23:46.190Z,18.87
2018-04-02T06:26:14.348Z,21.60
2018-04-02T06:28:42.478Z,17.10
2018-04-02T06:31:10.634Z,17.98
2018-04-02T06:33:38.762Z,18.12
2018-04-02T06:36:07.687Z,15.80
2018-04-02T06:38:35.825Z,15.65
2018-04-02T06:41:04.750Z,15.25
2018-04-02T06:43:32.880Z,14.98
2018-04-02T06:46:01.806Z,17.85
2018-04-02T06:48:29.949Z,14.45
2018-04-02T06:50:58.113Z,16.30
2018-04-02T06:53:26.258Z,18.10
2018-04-02T06:55:54.422Z,13.23
2018-04-02T06:58:22.552Z,14.95
2018-04-02T07:00:50.716Z,14.65
2018-04-02T07:03:18.858Z,14.48
2018-04-02T07:05:47.034Z,16.48
2018-04-02T07:08:15.166Z,15.10
2018-04-02T07:10:43.329Z,12.88
2018-04-02T07:13:11.482Z,14.45
2018-04-02T07:15:39.643Z,15.93
2018-04-02T07:18:07.782Z,17.75
2018-04-02T07:20:35.936Z,12.43
2018-04-02T07:23:04.074Z,14.43
2018-04-02T07:25:32.234Z,12.55
2018-04-02T07:28:00.378Z,13.77
2018-04-02T07:30:28.533Z,12.10
2018-04-02T07:32:56.665Z,12.88
2018-04-02T07:35:24.796Z,14.82
2018-04-02T07:37:52.948Z,13.05
2018-04-02T07:40:21.089Z,12.77
2018-04-02T07:42:49.268Z,16.58
2018-04-02T07:45:17.404Z,15.35
2018-04-02T07:47:45.565Z,11.27
2018-04-02T07:50:13.693Z,11.12
2018-04-02T07:52:41.880Z,10.98
2018-04-02T07:55:10.005Z,10.65
2018-04-02T07:57:38.178Z,11.12
2018-04-02T08:00:06.309Z,9.65
2018-04-02T08:02:34.476Z,11.25
2018-04-02T08:05:02.611Z,10.43
2018-04-02T08:07:30.772Z,9.85
2018-04-02T08:09:58.898Z,8.75
2018-04-02T08:12:27.069Z,10.55
2018-04-02T08:14:55.197Z,10.80
2018-04-02T08:17:23.358Z,10.18
2018-04-02T08:19:51.491Z,11.05
2018-04-02T08:22:19.653Z,10.48
2018-04-02T08:24:47.780Z,10.35
2018-04-02T08:27:15.939Z,8.43
2018-04-02T08:29:44.066Z,10.05
2018-04-02T08:32:12.222Z,8.43
2018-04-02T08:34:40.340Z,9.07
2018-04-02T08:37:08.525Z,8.60
2018-04-02T08:39:36.650Z,8.00
2018-04-02T08:42:04.770Z,9.55
2018-04-02T08:44:32.925Z,7.28
2018-04-02T08:47:01.045Z,9.65
2018-04-02T08:49:29.188Z,8.25
2018-04-02T08:51:57.315Z,8.68
2018-04-02T08:54:25.469Z,9.40
2018-04-02T08:56:53.597Z,8.27
2018-04-02T08:59:21.745Z,8.32
2018-04-02T09:01:49.869Z,8.07
2018-04-02T09:04:18.086Z,7.72
2018-04-02T09:06:46.245Z,10.63
2018-04-02T09:09:14.414Z,10.32
2018-04-02T09:11:42.538Z,6.78
2018-04-02T09:14:10.693Z,9.27
2018-04-02T09:16:38.820Z,6.78
2018-04-02T09:19:06.980Z,7.72
2018-04-02T09:21:35.105Z,6.35
2018-04-02T09:24:03.273Z,6.18
2018-04-02T09:26:31.414Z,7.82
2018-04-02T09:28:59.557Z,7.70
2018-04-02T09:31:27.688Z,11.60
2018-04-02T09:33:55.837Z,9.90
2018-04-02T09:36:23.963Z,7.75
2018-04-02T09:38:52.120Z,6.25
2018-04-02T09:41:20.257Z,7.22
2018-04-02T09:43:48.416Z,8.65
2018-04-02T09:46:16.550Z,13.50
2018-04-02T09:48:44.703Z,20.75
2018-04-02T09:51:13.609Z,7.53
2018-04-02T09:53:41.766Z,16.02
2018-04-02T09:56:10.666Z,31.60
2018-04-02T09:58:38.834Z,7.05
2018-04-02T10:01:07.742Z,14.73
2018-04-02T10:03:38.838Z,19.10
2018-04-02T10:06:06.973Z,5.68
2018-04-02T10:08:35.162Z,11.45
2018-04-02T10:11:03.291Z,8.68
2018-04-02T10:13:32.203Z,8.60
2018-04-02T10:16:00.414Z,12.13
2018-04-02T10:18:28.582Z,7.00
2018-04-02T10:20:56.738Z,7.00
2018-04-02T10:23:24.861Z,9.18
2018-04-02T10:25:53.018Z,6.40
2018-04-02T10:28:21.150Z,8.25
2018-04-02T10:30:49.300Z,5.20
2018-04-02T10:33:17.460Z,7.47
2018-04-02T10:35:46.372Z,9.35
2018-04-02T10:38:14.496Z,7.95
2018-04-02T10:40:42.649Z,9.80
2018-04-02T10:43:10.778Z,6.90
2018-04-02T10:45:38.933Z,5.12
2018-04-02T10:48:07.824Z,6.43
2018-04-02T10:50:35.972Z,8.20
2018-04-02T10:53:04.106Z,6.35
2018-04-02T10:55:32.260Z,8.40
2018-04-02T10:58:00.390Z,11.32
2018-04-02T11:00:28.541Z,4.60
2018-04-02T11:02:56.665Z,5.05
2018-04-02T11:05:25.597Z,3.72
2018-04-02T11:07:53.726Z,3.60
2018-04-02T11:10:22.633Z,5.97
2018-04-02T11:12:50.810Z,3.65
2018-04-02T11:15:19.702Z,7.70
2018-04-02T11:17:47.850Z,6.32
2018-04-02T11:20:15.977Z,3.80
2018-04-02T11:22:44.125Z,6.40
2018-04-02T11:25:12.254Z,4.65
2018-04-02T11:27:41.924Z,4.32
2018-04-02T11:30:10.060Z,5.72
2018-04-02T11:32:38.204Z,5.15
2018-04-02T11:35:06.328Z,2.90
2018-04-02T11:37:34.482Z,4.95
2018-04-02T11:40:02.672Z,7.68
2018-04-02T11:42:31.577Z,4.80
2018-04-02T11:44:59.706Z,3.37
2018-04-02T11:47:27.857Z,7.37
2018-04-02T11:49:55.988Z,3.90
2018-04-02T11:52:24.136Z,3.30
2018-04-02T11:54:52.282Z,4.20
2018-04-02T11:57:20.437Z,5.37
2018-04-02T11:59:48.566Z,3.90
2018-04-02T12:02:16.725Z,4.65
2018-04-02T12:04:44.862Z,8.48
2018-04-02T12:07:13.017Z,3.47
2018-04-02T12:09:41.137Z,4.03
2018-04-02T12:12:09.290Z,3.72
2018-04-02T12:14:37.450Z,2.53
2018-04-02T12:17:05.622Z,5.43
2018-04-02T12:19:33.751Z,3.65
2018-04-02T12:22:01.934Z,3.30
2018-04-02T12:24:30.062Z,6.90
2018-04-02T12:26:58.208Z,8.43
2018-04-02T12:29:26.347Z,3.12
2018-04-02T12:31:55.273Z,4.35
2018-04-02T12:34:23.400Z,4.78
2018-04-02T12:36:52.300Z,7.28
2018-04-02T12:39:21.261Z,4.55
2018-04-02T12:41:50.188Z,3.87
2018-04-02T12:44:18.397Z,3.80
2018-04-02T12:46:47.262Z,3.95
2018-04-02T12:49:15.429Z,6.43
2018-04-02T12:51:44.355Z,2.95
2018-04-02T12:54:12.513Z,7.82
2018-04-02T12:56:40.632Z,4.00
2018-04-02T12:59:08.922Z,5.03
2018-04-02T13:01:38.033Z,2.53
2018-04-02T13:04:06.273Z,7.18
2018-04-02T13:06:34.444Z,2.60
2018-04-02T13:09:02.665Z,3.70
2018-04-02T13:11:30.859Z,3.78
2018-04-02T13:13:59.104Z,6.68
2018-04-02T13:16:27.230Z,2.67
2018-04-02T13:18:55.380Z,9.75
2018-04-02T13:21:23.510Z,2.83
2018-04-02T13:23:51.653Z,2.80
2018-04-02T13:26:19.776Z,6.00
2018-04-02T13:28:47.934Z,5.82
2018-04-02T13:31:16.064Z,3.72
2018-04-02T13:33:44.225Z,3.03
2018-04-02T13:36:12.346Z,4.03
2018-04-02T13:38:40.514Z,6.47
2018-04-02T13:41:08.637Z,3.33
2018-04-02T13:43:36.800Z,5.50
2018-04-02T13:46:04.927Z,3.42
2018-04-02T13:48:33.129Z,3.28
2018-04-02T13:51:01.282Z,5.05
2018-04-02T13:53:29.417Z,4.82
2018-04-02T13:55:57.570Z,4.18
2018-04-02T13:58:25.700Z,5.82
2018-04-02T14:00:53.865Z,4.40
2018-04-02T14:03:21.994Z,4.37
2018-04-02T14:05:50.619Z,3.92
2018-04-02T14:08:18.746Z,4.30
2018-04-02T14:10:46.895Z,4.20
2018-04-02T14:13:15.013Z,3.40
2018-04-02T14:15:43.167Z,4.03
2018-04-02T14:18:11.290Z,4.65
2018-04-02T14:20:39.440Z,4.10
2018-04-02T14:23:07.569Z,3.37
2018-04-02T14:25:35.715Z,4.30
2018-04-02T14:28:03.890Z,3.58
2018-04-02T14:30:32.014Z,5.85
2018-04-02T14:33:00.137Z,3.55
2018-04-02T14:35:28.314Z,4.20
2018-04-02T14:37:56.492Z,7.97
2018-04-02T14:40:24.649Z,5.80
2018-04-02T14:42:52.768Z,3.85
2018-04-02T14:45:20.936Z,3.40
2018-04-02T14:47:49.052Z,3.75
2018-04-02T14:50:17.206Z,4.40
2018-04-02T14:52:45.334Z,6.60
2018-04-02T14:55:13.485Z,8.20
2018-04-02T14:57:41.637Z,4.57
2018-04-02T15:00:09.762Z,4.97
2018-04-02T15:02:37.910Z,5.80
2018-04-02T15:05:06.051Z,6.70
2018-04-02T15:07:34.204Z,4.15
2018-04-02T15:10:02.330Z,4.53
2018-04-02T15:12:30.491Z,7.43
2018-04-02T15:14:58.624Z,3.33
2018-04-02T15:17:26.769Z,5.07
2018-04-02T15:19:55.814Z,5.37
2018-04-02T15:22:23.963Z,4.80
2018-04-02T15:24:52.086Z,3.87
2018-04-02T15:27:20.229Z,7.70
2018-04-02T15:29:48.360Z,4.78
2018-04-02T15:32:17.270Z,6.32
2018-04-02T15:34:45.393Z,5.43
2018-04-02T15:37:13.546Z,6.25
2018-04-02T15:39:41.669Z,4.30
2018-04-02T15:42:09.827Z,10.93
2018-04-02T15:44:37.954Z,4.03
2018-04-02T15:47:06.103Z,6.85
2018-04-02T15:49:34.247Z,4.12
2018-04-02T15:52:02.424Z,4.62
2018-04-02T15:54:30.545Z,7.80
2018-04-02T15:56:58.694Z,4.22
2018-04-02T15:59:26.823Z,4.95
2018-04-02T16:01:55.022Z,8.60
2018-04-02T16:04:23.141Z,4.55
2018-04-02T16:06:51.335Z,4.68
2018-04-02T16:09:19.454Z,4.62
2018-04-02T16:11:47.603Z,3.95
2018-04-02T16:14:15.734Z,5.00
2018-04-02T16:16:43.952Z,5.55
2018-04-02T16:19:12.072Z,5.35
2018-04-02T16:21:40.220Z,4.78
2018-04-02T16:24:08.396Z,5.05
2018-04-02T16:26:37.294Z,8.00
2018-04-02T16:29:05.456Z,8.57
2018-04-02T16:31:34.349Z,5.62
2018-04-02T16:34:02.495Z,8.68
2018-04-02T16:36:30.621Z,7.30
2018-04-02T16:38:58.765Z,7.28
2018-04-02T16:41:26.888Z,8.57
2018-04-02T16:43:55.037Z,7.40
2018-04-02T16:46:23.158Z,6.57
2018-04-02T16:48:51.309Z,6.12
2018-04-02T16:51:19.435Z,8.55
2018-04-02T16:53:47.597Z,7.25
2018-04-02T16:56:15.754Z,6.05
2018-04-02T16:58:43.876Z,6.55
2018-04-02T17:01:12.025Z,5.57
2018-04-02T17:03:40.167Z,5.35
2018-04-02T17:06:08.386Z,9.07
2018-04-02T17:08:37.265Z,5.28
2018-04-02T17:11:05.418Z,5.93
2018-04-02T17:13:33.589Z,6.70
2018-04-02T17:16:01.752Z,7.00
2018-04-02T17:18:29.888Z,6.70
2018-04-02T17:20:58.053Z,6.82
2018-04-02T17:23:26.182Z,15.10
2018-04-02T17:25:54.436Z,6.35
2018-04-02T17:28:22.669Z,6.80
2018-04-02T17:30:50.810Z,7.55
2018-04-02T17:33:18.970Z,6.05
2018-04-02T17:35:47.090Z,6.62
2018-04-02T17:38:15.272Z,9.38
2018-04-02T17:40:43.410Z,9.18
2018-04-02T17:43:11.605Z,5.80
2018-04-02T17:45:39.756Z,5.47
2018-04-02T17:48:07.908Z,4.85
2018-04-02T17:50:36.075Z,6.40
2018-04-02T17:53:04.200Z,4.95
2018-04-02T17:55:32.348Z,8.60
2018-04-02T17:58:00.779Z,8.25
2018-04-02T18:00:28.934Z,6.50
2018-04-02T18:02:57.077Z,6.03
2018-04-02T18:05:26.016Z,6.85
2018-04-02T18:07:54.140Z,12.27
2018-04-02T18:10:23.101Z,7.03
2018-04-02T18:12:51.386Z,7.57
2018-04-02T18:15:19.575Z,7.05
2018-04-02T18:17:48.484Z,8.43
2018-04-02T18:20:16.683Z,7.45
2018-04-02T18:22:44.889Z,5.47
2018-04-02T18:25:13.101Z,6.55
2018-04-02T18:27:42.006Z,9.55
2018-04-02T18:30:10.218Z,11.23
2018-04-02T18:32:38.460Z,6.18
2018-04-02T18:35:06.718Z,6.57
2018-04-02T18:37:34.840Z,5.25
2018-04-02T18:40:03.007Z,5.90
2018-04-02T18:42:31.142Z,5.97
2018-04-02T18:45:00.061Z,7.35
2018-04-02T18:47:28.194Z,4.75
2018-04-02T18:49:56.325Z,5.95
2018-04-02T18:52:24.474Z,6.68
2018-04-02T18:54:52.626Z,10.18
2018-04-02T18:57:21.014Z,7.90
2018-04-02T18:59:49.192Z,6.45
2018-04-02T19:02:17.422Z,6.60
2018-04-02T19:04:45.555Z,12.80
2018-04-02T19:07:13.788Z,9.95
2018-04-02T19:09:41.979Z,13.25
2018-04-02T19:12:10.212Z,9.93
2018-04-02T19:14:38.338Z,9.45
2018-04-02T19:17:06.519Z,8.25
2018-04-02T19:19:34.721Z,8.43
2018-04-02T19:22:02.922Z,11.80
2018-04-02T19:24:31.227Z,8.75
2018-04-02T19:26:59.509Z,9.05
2018-04-02T19:29:28.532Z,9.20
2018-04-02T19:31:56.751Z,11.50
2018-04-02T19:34:24.923Z,9.48
2018-04-02T19:36:53.112Z,7.97
2018-04-02T19:39:21.242Z,8.02
2018-04-02T19:41:49.680Z,11.70
2018-04-02T19:44:17.830Z,11.18
2018-04-02T19:46:45.984Z,8.98
2018-04-02T19:49:14.134Z,8.98
2018-04-02T19:51:42.286Z,9.07
2018-04-02T19:54:10.409Z,9.07
2018-04-02T19:56:38.577Z,8.85
2018-04-02T19:59:06.731Z,13.25
2018-04-02T20:01:34.898Z,8.30
2018-04-02T20:04:03.072Z,8.43
2018-04-02T20:06:31.194Z,11.12
2018-04-02T20:08:59.360Z,11.30
2018-04-02T20:11:27.505Z,9.23
2018-04-02T20:13:55.661Z,9.27
2018-04-02T20:16:23.810Z,13.00
2018-04-02T20:18:51.974Z,12.05
2018-04-02T20:21:20.160Z,11.12
2018-04-02T20:23:48.313Z,9.07
2018-04-02T20:26:16.504Z,9.85
2018-04-02T20:28:44.722Z,14.90
2018-04-02T20:31:12.857Z,10.73
2018-04-02T20:33:41.072Z,8.90
2018-04-02T20:36:09.292Z,10.55
2018-04-02T20:38:38.234Z,12.40
2018-04-02T20:41:06.531Z,10.30
2018-04-02T20:43:34.800Z,7.72
2018-04-02T20:46:02.930Z,10.13
2018-04-02T20:48:31.092Z,9.27
2018-04-02T20:50:59.269Z,14.18
2018-04-02T20:53:27.425Z,8.65
2018-04-02T20:55:55.574Z,12.35
2018-04-02T20:58:23.730Z,8.23
2018-04-02T21:00:51.880Z,9.85
2018-04-02T21:03:20.034Z,11.65
2018-04-02T21:05:48.161Z,7.75
2018-04-02T21:08:16.314Z,11.75
2018-04-02T21:10:44.450Z,13.38
2018-04-02T21:13:12.651Z,10.18
2018-04-02T21:15:40.777Z,8.80
2018-04-02T21:18:08.906Z,9.55
2018-04-02T21:20:37.054Z,7.65
2018-04-02T21:23:05.363Z,8.02
2018-04-02T21:25:33.532Z,9.45
2018-04-02T21:28:01.660Z,9.13
2018-04-02T21:30:29.826Z,9.00
2018-04-02T21:32:58.726Z,9.70
2018-04-02T21:35:26.875Z,9.65
2018-04-02T21:37:55.068Z,9.27
2018-04-02T21:40:23.985Z,11.88
2018-04-02T21:42:52.151Z,9.52
2018-04-02T21:45:20.302Z,8.77
2018-04-02T21:47:48.457Z,9.57
2018-04-02T21:50:16.614Z,12.65
2018-04-02T21:52:44.745Z,9.60
2018-04-02T21:55:12.895Z,8.48
2018-04-02T21:57:41.016Z,10.98
2018-04-02T22:00:09.161Z,8.75
2018-04-02T22:02:37.298Z,14.82
2018-04-02T22:05:05.453Z,8.68
2018-04-02T22:07:33.581Z,8.43
2018-04-02T22:10:01.734Z,9.07
2018-04-02T22:12:30.622Z,9.20
2018-04-02T22:14:58.774Z,9.85
2018-04-02T22:17:26.899Z,9.23
2018-04-02T22:19:55.045Z,9.43
2018-04-02T22:22:23.170Z,9.82
2018-04-02T22:24:51.336Z,9.18
2018-04-02T22:27:19.456Z,8.93
2018-04-02T22:29:47.612Z,10.10
2018-04-02T22:32:15.770Z,10.20
2018-04-02T22:34:43.894Z,9.45
2018-04-02T22:37:12.042Z,13.95
2018-04-02T22:39:40.160Z,8.27
2018-04-02T22:42:08.318Z,18.55
2018-04-02T22:44:36.464Z,8.98
2018-04-02T22:47:04.619Z,10.82
2018-04-02T22:49:32.746Z,8.20
2018-04-02T22:52:00.906Z,9.10
2018-04-02T22:54:29.025Z,8.90
2018-04-02T22:56:57.178Z,8.27
2018-04-02T22:59:25.300Z,10.45
2018-04-02T23:01:53.454Z,8.52
2018-04-02T23:04:21.578Z,8.88
2018-04-02T23:06:49.739Z,10.43
2018-04-02T23:09:17.865Z,8.95
2018-04-02T23:11:46.014Z,11.23
2018-04-02T23:14:14.141Z,8.95
2018-04-02T23:16:42.297Z,9.60
2018-04-02T23:19:10.417Z,8.00
2018-04-02T23:21:38.573Z,11.32
2018-04-02T23:24:07.461Z,8.23
2018-04-02T23:26:35.624Z,8.50
2018-04-02T23:29:03.767Z,9.68
2018-04-02T23:31:31.920Z,8.93
2018-04-02T23:34:00.054Z,10.48
2018-04-02T23:36:28.214Z,10.70
2018-04-02T23:38:56.375Z,8.35
2018-04-02T23:41:24.547Z,8.18
2018-04-02T23:43:52.670Z,8.88
2018-04-02T23:46:20.831Z,10.23
2018-04-02T23:48:49.723Z,9.27
2018-04-02T23:51:17.876Z,8.23
2018-04-02T23:53:46.783Z,8.63
2018-04-02T23:56:14.969Z,9.15
2018-04-02T23:58:43.094Z,8.80
